Custer, WA (98240)

11:34 AM PDT on August 25, 2016 (GMT -0700)
Dakota Creek Farm | | Change Station

Elev 141 ft 48.97 °N, 122.63 °W | Updated 25 seconds ago

Clear
Clear
87.0 °F
Feels Like 86 °F
N
4.0
Wind Variable Wind from SSE
Gusts 6.0 mph

Today
High -- | Low -- °F
--% Chance of Precip.
Yesterday
High -- | Low -- °F
Precip. -- in
Pressure 30.14 in
Visibility 10.0 miles
Clouds Clear
Heat Index 86 °F
Dew Point 58 °F
Humidity 38%
Rainfall 0.00 in
Snow Depth Not available.
6:18 AM 8:05 PM
Last Quarter, 43% visible
METAR KBLI 251753Z 00000KT 10SM CLR 25/11 A3012 RMK AO2 SLP204 T02500106 10256 20122 58008
Pressure 30.14 in
Visibility 10.0 miles
Clouds Clear
Heat Index 86 °F
Dew Point 58 °F
Humidity 38%
Rainfall 0.00 in
Snow Depth Not available.
6:18 AM 8:05 PM
Last Quarter, 43% visible
METAR KBLI 251753Z 00000KT 10SM CLR 25/11 A3012 RMK AO2 SLP204 T02500106 10256 20122 58008
A tropical disturbance pushing toward the Bahamas, is expected to develop into a tropical depression or storm, and will likely target Florida and the Gulf Coast this weekend into next week.

Right now, the disturbance remains a broad area of low pressure pushing through the Dominican Republic and Haiti, headed toward the southeast Bahamas. Rainfall totals over 3 inches (with locally higher amounts) are expected in HispaƱiola, particularly over elevated terrain.

10-Day Weather Forecast

Almanac

Astronomy

Aug. 25, 2016 Rise Set
Actual Time
Civil Twilight
Nautical Twilight
Astronomical Twilight
Moon
Length of Visible Light
Length of Day
Tomorrow will be .
, % of the Moon is Illuminated

Today's Extremes

State Highs State Lows

Community

WunderPhotos

Upload Photos

1,934,889 photos uploaded!

WunderBlog® & News

Nearby

Air Quality

  Air Quality AQ Index Pollutant
Not available.

Snow Depth

Station Depth Elevation

Earthquake Activity

City Distance Mag. Time & Date
Minimum magnitude displayed is 2.5.

Coastal Water Temperatures

Place Temperature

Stations

Nearby Weather Stations

Station Location Temp. Windchill Dew Point Humidity Wind Precip. Elev Updated Type
                   

Watches & Warnings

There are currently no watches in effect.